createdAt,value
2023-12-08T01:51:55.155Z,21.34
2023-12-08T01:54:40.252Z,21.33
2023-12-08T01:57:25.511Z,21.31
2023-12-08T02:00:10.923Z,21.33
2023-12-08T02:02:56.358Z,21.34
2023-12-08T02:05:41.784Z,21.39
2023-12-08T02:08:27.024Z,21.36
2023-12-08T02:11:14.280Z,21.36
2023-12-08T02:13:59.861Z,21.37
2023-12-08T02:16:45.069Z,21.37
2023-12-08T02:19:30.101Z,21.38
2023-12-08T02:22:15.513Z,21.39
2023-12-08T02:25:00.616Z,21.39
2023-12-08T02:27:45.960Z,21.35
2023-12-08T02:30:31.363Z,21.38
2023-12-08T02:33:16.874Z,21.38
2023-12-08T02:36:02.325Z,21.38
2023-12-08T02:38:47.848Z,21.39
2023-12-08T02:41:33.219Z,21.38
2023-12-08T02:44:18.118Z,21.40
2023-12-08T02:47:03.033Z,21.40
2023-12-08T02:49:48.003Z,21.40
2023-12-08T02:52:35.307Z,21.43
2023-12-08T02:55:20.132Z,21.38
2023-12-08T02:58:05.271Z,21.38
2023-12-08T03:00:50.134Z,21.40
2023-12-08T03:03:35.741Z,21.40
2023-12-08T03:06:21.082Z,21.40
2023-12-08T03:09:05.902Z,21.43
2023-12-08T03:11:51.354Z,21.42
2023-12-08T03:14:36.486Z,21.41
2023-12-08T03:17:22.056Z,21.39
2023-12-08T03:20:07.533Z,21.39
2023-12-08T03:22:52.404Z,21.40
2023-12-08T03:25:37.408Z,21.42
2023-12-08T03:28:22.319Z,21.42
2023-12-08T03:31:07.255Z,21.39
2023-12-08T03:33:52.279Z,21.39
2023-12-08T03:36:37.729Z,21.40
2023-12-08T03:39:23.145Z,21.39
2023-12-08T03:42:08.127Z,21.40
2023-12-08T03:44:53.481Z,21.37
2023-12-08T03:47:38.602Z,21.43
2023-12-08T03:50:24.169Z,21.40
2023-12-08T03:53:09.194Z,21.41
2023-12-08T03:55:54.092Z,21.42
2023-12-08T03:58:39.517Z,21.40
2023-12-08T04:01:24.522Z,21.43
2023-12-08T04:04:09.895Z,21.42
2023-12-08T04:06:54.785Z,21.42
2023-12-08T04:09:40.060Z,21.41
2023-12-08T04:12:25.022Z,21.41
2023-12-08T04:15:10.033Z,21.42
2023-12-08T04:17:55.492Z,21.41
2023-12-08T04:20:40.999Z,21.44
2023-12-08T04:23:26.417Z,21.42
2023-12-08T04:26:13.001Z,21.42
2023-12-08T04:28:57.914Z,21.42
2023-12-08T04:31:43.005Z,21.44
2023-12-08T04:34:28.226Z,21.43
2023-12-08T04:37:13.511Z,21.45
2023-12-08T04:39:58.625Z,21.45
2023-12-08T04:42:44.169Z,21.44
2023-12-08T04:45:29.159Z,21.42
2023-12-08T04:48:14.540Z,21.44
2023-12-08T04:50:59.730Z,21.44
2023-12-08T04:53:45.196Z,21.43
2023-12-08T04:56:30.713Z,21.44
2023-12-08T04:59:15.663Z,21.45
2023-12-08T05:02:00.718Z,21.46
2023-12-08T05:04:45.550Z,21.46
2023-12-08T05:07:30.589Z,21.47
2023-12-08T05:10:15.795Z,21.48
2023-12-08T05:13:00.760Z,21.46
2023-12-08T05:15:45.748Z,21.50
2023-12-08T05:18:30.833Z,21.52
2023-12-08T05:21:16.250Z,21.50
2023-12-08T05:24:01.458Z,21.51
2023-12-08T05:26:47.057Z,21.51
2023-12-08T05:29:32.424Z,21.52
2023-12-08T05:32:17.385Z,21.52
2023-12-08T05:35:02.217Z,21.54
2023-12-08T05:37:47.718Z,21.53
2023-12-08T05:40:33.207Z,21.52
2023-12-08T05:43:18.313Z,21.53
2023-12-08T05:46:03.327Z,21.54
2023-12-08T05:48:48.354Z,21.51
2023-12-08T05:51:33.857Z,21.54
2023-12-08T05:54:18.801Z,21.54
2023-12-08T05:57:04.263Z,21.55
2023-12-08T05:59:49.440Z,21.53
2023-12-08T06:02:34.274Z,21.54
2023-12-08T06:05:19.277Z,21.55
2023-12-08T06:08:04.238Z,21.56
2023-12-08T06:10:49.747Z,21.56
2023-12-08T06:13:34.855Z,21.57
2023-12-08T06:16:19.759Z,21.55
2023-12-08T06:19:04.777Z,21.56
2023-12-08T06:21:50.132Z,21.58
2023-12-08T06:24:35.162Z,21.56
2023-12-08T06:27:20.226Z,21.58
2023-12-08T06:30:05.524Z,21.56
2023-12-08T06:32:50.904Z,21.59
2023-12-08T06:35:36.385Z,21.57
2023-12-08T06:38:21.937Z,21.58
2023-12-08T06:41:06.730Z,21.57
2023-12-08T06:43:51.844Z,21.56
2023-12-08T06:46:36.813Z,21.57
2023-12-08T06:49:21.840Z,21.56
2023-12-08T06:52:07.055Z,21.56
2023-12-08T06:54:52.501Z,21.53
2023-12-08T06:57:37.624Z,21.53
2023-12-08T07:00:22.993Z,21.54
2023-12-08T07:03:08.601Z,21.58
2023-12-08T07:05:54.098Z,21.55
2023-12-08T07:08:39.333Z,21.57
2023-12-08T07:11:24.954Z,21.55
2023-12-08T07:14:10.319Z,21.58
2023-12-08T07:16:55.320Z,21.58
2023-12-08T07:19:40.791Z,21.57
2023-12-08T07:22:26.030Z,21.54
2023-12-08T07:25:10.988Z,21.52
2023-12-08T07:27:55.980Z,21.54
2023-12-08T07:30:41.060Z,21.55
2023-12-08T07:33:26.146Z,21.57
2023-12-08T07:36:11.394Z,21.58
2023-12-08T07:38:56.830Z,21.61
2023-12-08T07:41:42.128Z,21.61
2023-12-08T07:44:27.450Z,21.62
2023-12-08T07:47:12.616Z,21.63
2023-12-08T07:49:57.952Z,21.62
2023-12-08T07:52:43.401Z,21.63
2023-12-08T07:55:28.597Z,21.64
2023-12-08T07:58:13.569Z,21.65
2023-12-08T08:00:58.677Z,21.67
2023-12-08T08:03:44.189Z,21.67
2023-12-08T08:06:29.715Z,21.67
2023-12-08T08:09:15.303Z,21.68
2023-12-08T08:12:00.642Z,21.67
2023-12-08T08:14:46.093Z,21.67
2023-12-08T08:17:31.576Z,21.70
2023-12-08T08:20:16.967Z,21.69
2023-12-08T08:23:01.932Z,21.70
2023-12-08T08:25:47.333Z,21.70
2023-12-08T08:28:32.511Z,21.71
2023-12-08T08:31:17.431Z,21.70
2023-12-08T08:34:02.332Z,21.72
2023-12-08T08:36:47.676Z,21.71
2023-12-08T08:39:32.983Z,21.70
2023-12-08T08:42:18.065Z,21.70
2023-12-08T19:48:06.708Z,21.69
2023-12-08T19:50:51.792Z,21.69
2023-12-08T19:53:37.190Z,21.71
2023-12-08T19:56:21.952Z,21.72
2023-12-08T19:59:07.139Z,21.75
2023-12-08T20:01:52.687Z,21.72
2023-12-08T20:04:38.372Z,21.72
2023-12-08T20:07:23.945Z,21.73
2023-12-08T20:10:09.253Z,21.75
2023-12-08T20:12:54.865Z,21.72
2023-12-08T20:15:40.386Z,21.73
2023-12-08T20:18:25.715Z,21.75
2023-12-08T20:21:11.093Z,21.73
2023-12-08T20:23:56.435Z,21.75
2023-12-08T20:26:41.902Z,21.75
2023-12-08T20:29:27.277Z,21.74
2023-12-08T20:32:12.703Z,21.76
2023-12-08T20:34:58.052Z,21.75
2023-12-08T20:37:43.361Z,21.76
2023-12-08T20:40:28.283Z,21.77
2023-12-08T20:43:13.185Z,21.77
2023-12-08T20:45:58.190Z,21.78
2023-12-08T20:48:43.554Z,21.77
2023-12-08T20:51:28.783Z,21.75
2023-12-08T20:54:13.709Z,21.73
2023-12-08T20:56:58.816Z,21.72
2023-12-08T20:59:43.989Z,21.75
2023-12-08T21:02:28.896Z,21.76
2023-12-08T21:05:13.921Z,21.77
2023-12-08T21:07:58.872Z,21.77
2023-12-08T21:10:44.345Z,21.79
2023-12-08T21:13:29.503Z,21.79
2023-12-08T21:16:14.991Z,21.77
2023-12-08T21:19:00.036Z,21.79
2023-12-08T21:21:45.165Z,21.79
2023-12-08T21:24:30.326Z,21.78
2023-12-08T21:27:15.726Z,21.79
2023-12-08T21:30:01.161Z,21.76
2023-12-08T21:32:46.619Z,21.77
2023-12-08T21:35:31.952Z,21.76
2023-12-08T21:38:16.869Z,21.76
2023-12-08T21:41:01.776Z,21.76
2023-12-08T21:43:47.028Z,21.77
2023-12-08T21:46:32.461Z,21.76
2023-12-08T21:49:17.611Z,21.77
2023-12-08T21:52:02.868Z,21.73
2023-12-08T21:54:48.048Z,21.76
2023-12-08T21:57:33.148Z,21.77
2023-12-08T22:00:18.607Z,21.75
2023-12-08T22:03:04.160Z,21.76
2023-12-08T22:05:49.492Z,21.77
2023-12-08T22:08:34.776Z,21.73
2023-12-08T22:11:19.695Z,21.73
2023-12-08T22:14:04.610Z,21.77
2023-12-08T22:16:49.889Z,21.73
2023-12-08T22:19:35.082Z,21.73
2023-12-08T22:22:20.578Z,21.72
2023-12-08T22:25:05.550Z,21.73
2023-12-08T22:27:50.475Z,21.75
2023-12-08T22:30:35.658Z,21.73
2023-12-08T22:33:21.148Z,21.72
2023-12-08T22:36:06.336Z,21.73
2023-12-08T22:38:51.749Z,21.73
2023-12-08T22:41:37.155Z,21.75
2023-12-08T22:44:21.962Z,21.73
2023-12-08T22:47:06.903Z,21.75
2023-12-08T22:49:52.122Z,21.75
